sensor_id;sensor_type;location;lat;lon;timestamp;P1;durP1;ratioP1;P2;durP2;ratioP2
49223;SDS011;35050;51.316;5.994;2023-09-07T00:02:17;2.40;;;2.20;;
49223;SDS011;35050;51.316;5.994;2023-09-07T00:04:43;3.03;;;2.45;;
49223;SDS011;35050;51.316;5.994;2023-09-07T00:07:09;3.63;;;2.30;;
49223;SDS011;35050;51.316;5.994;2023-09-07T00:09:35;3.13;;;2.83;;
49223;SDS011;35050;51.316;5.994;2023-09-07T00:12:00;2.75;;;2.53;;
49223;SDS011;35050;51.316;5.994;2023-09-07T00:14:26;2.55;;;2.20;;
49223;SDS011;35050;51.316;5.994;2023-09-07T00:16:52;2.50;;;2.30;;
49223;SDS011;35050;51.316;5.994;2023-09-07T00:19:17;3.17;;;2.63;;
49223;SDS011;35050;51.316;5.994;2023-09-07T00:21:43;2.95;;;2.38;;
49223;SDS011;35050;51.316;5.994;2023-09-07T00:24:08;2.83;;;2.50;;
49223;SDS011;35050;51.316;5.994;2023-09-07T00:26:35;2.60;;;2.38;;
49223;SDS011;35050;51.316;5.994;2023-09-07T00:29:01;2.35;;;2.15;;
49223;SDS011;35050;51.316;5.994;2023-09-07T00:31:26;2.42;;;2.17;;
49223;SDS011;35050;51.316;5.994;2023-09-07T00:33:52;4.60;;;2.47;;
49223;SDS011;35050;51.316;5.994;2023-09-07T00:36:17;2.92;;;2.60;;
49223;SDS011;35050;51.316;5.994;2023-09-07T00:38:43;3.08;;;2.60;;
49223;SDS011;35050;51.316;5.994;2023-09-07T00:41:09;2.95;;;2.60;;
49223;SDS011;35050;51.316;5.994;2023-09-07T00:43:34;3.03;;;2.72;;
49223;SDS011;35050;51.316;5.994;2023-09-07T00:46:00;3.53;;;2.83;;
49223;SDS011;35050;51.316;5.994;2023-09-07T00:48:26;4.03;;;2.90;;
49223;SDS011;35050;51.316;5.994;2023-09-07T00:50:52;2.75;;;2.55;;
49223;SDS011;35050;51.316;5.994;2023-09-07T00:53:17;2.88;;;2.40;;
49223;SDS011;35050;51.316;5.994;2023-09-07T00:55:44;2.63;;;2.40;;
49223;SDS011;35050;51.316;5.994;2023-09-07T00:58:10;3.85;;;2.60;;
49223;SDS011;35050;51.316;5.994;2023-09-07T01:00:37;2.53;;;2.25;;
49223;SDS011;35050;51.316;5.994;2023-09-07T01:03:03;4.00;;;2.42;;
49223;SDS011;35050;51.316;5.994;2023-09-07T01:05:38;4.20;;;2.50;;
49223;SDS011;35050;51.316;5.994;2023-09-07T01:08:14;3.00;;;2.17;;
49223;SDS011;35050;51.316;5.994;2023-09-07T01:10:45;3.20;;;2.90;;
49223;SDS011;35050;51.316;5.994;2023-09-07T01:13:11;3.17;;;2.63;;
49223;SDS011;35050;51.316;5.994;2023-09-07T01:15:37;2.78;;;2.47;;
49223;SDS011;35050;51.316;5.994;2023-09-07T01:18:03;2.85;;;2.30;;
49223;SDS011;35050;51.316;5.994;2023-09-07T01:20:30;2.60;;;2.40;;
49223;SDS011;35050;51.316;5.994;2023-09-07T01:22:58;2.63;;;2.33;;
49223;SDS011;35050;51.316;5.994;2023-09-07T01:25:24;2.85;;;2.55;;
49223;SDS011;35050;51.316;5.994;2023-09-07T01:27:49;2.60;;;2.30;;
49223;SDS011;35050;51.316;5.994;2023-09-07T01:30:16;3.45;;;2.75;;
49223;SDS011;35050;51.316;5.994;2023-09-07T01:32:42;3.22;;;2.50;;
49223;SDS011;35050;51.316;5.994;2023-09-07T01:35:08;2.92;;;2.60;;
49223;SDS011;35050;51.316;5.994;2023-09-07T01:37:36;2.95;;;2.67;;
49223;SDS011;35050;51.316;5.994;2023-09-07T01:40:01;3.13;;;2.58;;
49223;SDS011;35050;51.316;5.994;2023-09-07T01:42:32;3.05;;;2.72;;
49223;SDS011;35050;51.316;5.994;2023-09-07T01:44:58;3.20;;;2.90;;
49223;SDS011;35050;51.316;5.994;2023-09-07T01:47:23;3.22;;;2.70;;
49223;SDS011;35050;51.316;5.994;2023-09-07T01:49:49;4.30;;;2.60;;
49223;SDS011;35050;51.316;5.994;2023-09-07T01:52:14;3.30;;;2.70;;
49223;SDS011;35050;51.316;5.994;2023-09-07T01:54:40;3.35;;;2.92;;
49223;SDS011;35050;51.316;5.994;2023-09-07T01:57:06;2.78;;;2.50;;
49223;SDS011;35050;51.316;5.994;2023-09-07T01:59:31;3.45;;;2.80;;
49223;SDS011;35050;51.316;5.994;2023-09-07T02:01:57;2.40;;;2.20;;
49223;SDS011;35050;51.316;5.994;2023-09-07T02:04:22;3.88;;;2.83;;
49223;SDS011;35050;51.316;5.994;2023-09-07T02:06:48;2.78;;;2.58;;
49223;SDS011;35050;51.316;5.994;2023-09-07T02:09:14;3.85;;;2.50;;
49223;SDS011;35050;51.316;5.994;2023-09-07T02:11:39;2.80;;;2.50;;
49223;SDS011;35050;51.316;5.994;2023-09-07T02:14:05;2.90;;;2.63;;
49223;SDS011;35050;51.316;5.994;2023-09-07T02:16:31;3.35;;;2.50;;
49223;SDS011;35050;51.316;5.994;2023-09-07T02:19:03;2.60;;;2.40;;
49223;SDS011;35050;51.316;5.994;2023-09-07T02:23:55;2.67;;;2.47;;
49223;SDS011;35050;51.316;5.994;2023-09-07T02:26:21;3.05;;;2.75;;
49223;SDS011;35050;51.316;5.994;2023-09-07T02:28:47;5.15;;;2.60;;
49223;SDS011;35050;51.316;5.994;2023-09-07T02:31:12;2.63;;;2.40;;
49223;SDS011;35050;51.316;5.994;2023-09-07T02:33:38;2.70;;;2.50;;
49223;SDS011;35050;51.316;5.994;2023-09-07T02:36:03;4.07;;;2.90;;
49223;SDS011;35050;51.316;5.994;2023-09-07T02:38:29;2.78;;;2.38;;
49223;SDS011;35050;51.316;5.994;2023-09-07T02:40:55;4.00;;;2.65;;
49223;SDS011;35050;51.316;5.994;2023-09-07T02:43:21;3.42;;;2.60;;
49223;SDS011;35050;51.316;5.994;2023-09-07T02:45:48;5.35;;;3.15;;
49223;SDS011;35050;51.316;5.994;2023-09-07T02:48:14;3.38;;;2.75;;
49223;SDS011;35050;51.316;5.994;2023-09-07T02:50:40;4.05;;;2.90;;
49223;SDS011;35050;51.316;5.994;2023-09-07T02:53:06;2.95;;;2.67;;
49223;SDS011;35050;51.316;5.994;2023-09-07T02:55:31;3.17;;;2.53;;
49223;SDS011;35050;51.316;5.994;2023-09-07T02:57:57;4.20;;;2.42;;
49223;SDS011;35050;51.316;5.994;2023-09-07T03:00:23;3.58;;;2.63;;
49223;SDS011;35050;51.316;5.994;2023-09-07T03:02:49;2.80;;;2.30;;
49223;SDS011;35050;51.316;5.994;2023-09-07T03:05:15;2.70;;;2.47;;
49223;SDS011;35050;51.316;5.994;2023-09-07T03:07:41;3.13;;;2.40;;
49223;SDS011;35050;51.316;5.994;2023-09-07T03:10:07;3.10;;;2.80;;
49223;SDS011;35050;51.316;5.994;2023-09-07T03:12:33;3.35;;;2.60;;
49223;SDS011;35050;51.316;5.994;2023-09-07T03:14:59;2.47;;;2.03;;
49223;SDS011;35050;51.316;5.994;2023-09-07T03:17:28;2.60;;;2.40;;
49223;SDS011;35050;51.316;5.994;2023-09-07T03:19:54;4.68;;;2.50;;
49223;SDS011;35050;51.316;5.994;2023-09-07T03:22:20;2.80;;;2.50;;
49223;SDS011;35050;51.316;5.994;2023-09-07T03:24:46;2.78;;;2.50;;
49223;SDS011;35050;51.316;5.994;2023-09-07T03:27:12;2.88;;;2.38;;
49223;SDS011;35050;51.316;5.994;2023-09-07T03:29:37;2.80;;;2.60;;
49223;SDS011;35050;51.316;5.994;2023-09-07T03:32:03;2.58;;;2.38;;
49223;SDS011;35050;51.316;5.994;2023-09-07T03:34:29;2.97;;;2.25;;
49223;SDS011;35050;51.316;5.994;2023-09-07T03:36:55;2.50;;;2.30;;
49223;SDS011;35050;51.316;5.994;2023-09-07T03:39:20;2.80;;;2.50;;
49223;SDS011;35050;51.316;5.994;2023-09-07T03:41:47;2.47;;;2.20;;
49223;SDS011;35050;51.316;5.994;2023-09-07T03:44:13;2.85;;;2.63;;
49223;SDS011;35050;51.316;5.994;2023-09-07T03:46:38;2.80;;;2.58;;
49223;SDS011;35050;51.316;5.994;2023-09-07T03:49:04;2.97;;;2.42;;
49223;SDS011;35050;51.316;5.994;2023-09-07T03:51:30;2.45;;;2.17;;
49223;SDS011;35050;51.316;5.994;2023-09-07T03:53:56;2.60;;;2.40;;
49223;SDS011;35050;51.316;5.994;2023-09-07T03:56:21;2.75;;;2.38;;
49223;SDS011;35050;51.316;5.994;2023-09-07T03:58:47;2.63;;;2.30;;
49223;SDS011;35050;51.316;5.994;2023-09-07T04:01:13;3.25;;;2.50;;
49223;SDS011;35050;51.316;5.994;2023-09-07T04:03:39;2.40;;;2.20;;
49223;SDS011;35050;51.316;5.994;2023-09-07T04:06:07;2.97;;;2.35;;
49223;SDS011;35050;51.316;5.994;2023-09-07T04:08:33;2.85;;;2.53;;
49223;SDS011;35050;51.316;5.994;2023-09-07T04:11:04;2.53;;;1.90;;
49223;SDS011;35050;51.316;5.994;2023-09-07T04:13:30;2.83;;;2.20;;
49223;SDS011;35050;51.316;5.994;2023-09-07T04:15:57;2.63;;;2.20;;
49223;SDS011;35050;51.316;5.994;2023-09-07T04:18:23;3.17;;;2.47;;
49223;SDS011;35050;51.316;5.994;2023-09-07T04:20:49;2.30;;;2.10;;
49223;SDS011;35050;51.316;5.994;2023-09-07T04:23:15;3.45;;;2.40;;
49223;SDS011;35050;51.316;5.994;2023-09-07T04:25:40;3.42;;;2.33;;
49223;SDS011;35050;51.316;5.994;2023-09-07T04:28:09;2.22;;;2.03;;
49223;SDS011;35050;51.316;5.994;2023-09-07T04:30:38;2.88;;;2.50;;
49223;SDS011;35050;51.316;5.994;2023-09-07T04:33:04;2.42;;;2.22;;
49223;SDS011;35050;51.316;5.994;2023-09-07T04:35:30;2.88;;;2.30;;
49223;SDS011;35050;51.316;5.994;2023-09-07T04:37:57;2.63;;;2.20;;
49223;SDS011;35050;51.316;5.994;2023-09-07T04:40:23;2.30;;;2.10;;
49223;SDS011;35050;51.316;5.994;2023-09-07T04:42:49;3.50;;;2.50;;
49223;SDS011;35050;51.316;5.994;2023-09-07T04:45:15;4.18;;;2.58;;
49223;SDS011;35050;51.316;5.994;2023-09-07T04:47:41;3.53;;;2.38;;
49223;SDS011;35050;51.316;5.994;2023-09-07T04:50:06;2.70;;;2.50;;
49223;SDS011;35050;51.316;5.994;2023-09-07T04:52:32;2.78;;;2.42;;
49223;SDS011;35050;51.316;5.994;2023-09-07T04:54:59;2.72;;;2.28;;
49223;SDS011;35050;51.316;5.994;2023-09-07T04:57:25;2.67;;;2.33;;
49223;SDS011;35050;51.316;5.994;2023-09-07T04:59:51;2.42;;;2.22;;
49223;SDS011;35050;51.316;5.994;2023-09-07T05:02:16;2.65;;;2.10;;
49223;SDS011;35050;51.316;5.994;2023-09-07T05:04:42;2.50;;;2.30;;
49223;SDS011;35050;51.316;5.994;2023-09-07T05:07:08;2.90;;;2.60;;
49223;SDS011;35050;51.316;5.994;2023-09-07T05:09:34;2.55;;;2.20;;
49223;SDS011;35050;51.316;5.994;2023-09-07T05:12:00;3.13;;;2.60;;
49223;SDS011;35050;51.316;5.994;2023-09-07T05:14:25;3.17;;;2.60;;
49223;SDS011;35050;51.316;5.994;2023-09-07T05:16:51;3.15;;;2.30;;
49223;SDS011;35050;51.316;5.994;2023-09-07T05:19:17;2.50;;;2.25;;
49223;SDS011;35050;51.316;5.994;2023-09-07T05:21:43;3.33;;;2.20;;
49223;SDS011;35050;51.316;5.994;2023-09-07T05:24:09;4.38;;;2.60;;
49223;SDS011;35050;51.316;5.994;2023-09-07T05:26:34;2.60;;;2.40;;
49223;SDS011;35050;51.316;5.994;2023-09-07T05:29:00;2.85;;;2.30;;
49223;SDS011;35050;51.316;5.994;2023-09-07T05:31:25;3.88;;;2.55;;
49223;SDS011;35050;51.316;5.994;2023-09-07T05:33:51;3.22;;;2.42;;
49223;SDS011;35050;51.316;5.994;2023-09-07T05:36:17;4.00;;;3.15;;
49223;SDS011;35050;51.316;5.994;2023-09-07T05:38:43;3.10;;;2.60;;
49223;SDS011;35050;51.316;5.994;2023-09-07T05:41:09;3.83;;;2.80;;
49223;SDS011;35050;51.316;5.994;2023-09-07T05:43:34;4.70;;;2.70;;
49223;SDS011;35050;51.316;5.994;2023-09-07T05:46:00;3.80;;;2.85;;
49223;SDS011;35050;51.316;5.994;2023-09-07T05:48:26;2.90;;;2.30;;
49223;SDS011;35050;51.316;5.994;2023-09-07T05:50:51;2.53;;;2.33;;
49223;SDS011;35050;51.316;5.994;2023-09-07T05:53:18;3.55;;;2.60;;
49223;SDS011;35050;51.316;5.994;2023-09-07T05:55:45;4.22;;;2.60;;
49223;SDS011;35050;51.316;5.994;2023-09-07T05:58:11;3.08;;;2.45;;
49223;SDS011;35050;51.316;5.994;2023-09-07T06:00:37;5.57;;;2.40;;
49223;SDS011;35050;51.316;5.994;2023-09-07T06:03:04;3.22;;;2.67;;
49223;SDS011;35050;51.316;5.994;2023-09-07T06:05:34;4.20;;;2.75;;
49223;SDS011;35050;51.316;5.994;2023-09-07T06:08:01;4.05;;;2.80;;
49223;SDS011;35050;51.316;5.994;2023-09-07T06:10:29;6.07;;;2.78;;
49223;SDS011;35050;51.316;5.994;2023-09-07T06:12:56;3.10;;;2.80;;
49223;SDS011;35050;51.316;5.994;2023-09-07T06:15:22;4.25;;;2.72;;
49223;SDS011;35050;51.316;5.994;2023-09-07T06:17:47;3.40;;;2.75;;
49223;SDS011;35050;51.316;5.994;2023-09-07T06:20:13;3.15;;;2.60;;
49223;SDS011;35050;51.316;5.994;2023-09-07T06:22:39;2.70;;;2.40;;
49223;SDS011;35050;51.316;5.994;2023-09-07T06:25:04;4.45;;;2.13;;
49223;SDS011;35050;51.316;5.994;2023-09-07T06:27:30;3.63;;;2.45;;
49223;SDS011;35050;51.316;5.994;2023-09-07T06:29:56;2.58;;;2.35;;
49223;SDS011;35050;51.316;5.994;2023-09-07T06:32:22;2.58;;;2.38;;
49223;SDS011;35050;51.316;5.994;2023-09-07T06:34:48;3.13;;;2.30;;
49223;SDS011;35050;51.316;5.994;2023-09-07T06:37:14;3.45;;;2.05;;
49223;SDS011;35050;51.316;5.994;2023-09-07T06:39:39;2.40;;;2.20;;
49223;SDS011;35050;51.316;5.994;2023-09-07T06:42:08;4.40;;;2.35;;
49223;SDS011;35050;51.316;5.994;2023-09-07T06:44:35;3.10;;;2.28;;
49223;SDS011;35050;51.316;5.994;2023-09-07T06:47:00;2.40;;;2.17;;
49223;SDS011;35050;51.316;5.994;2023-09-07T06:49:27;2.35;;;2.13;;
49223;SDS011;35050;51.316;5.994;2023-09-07T06:51:54;3.65;;;2.40;;
49223;SDS011;35050;51.316;5.994;2023-09-07T06:54:21;3.63;;;2.35;;
49223;SDS011;35050;51.316;5.994;2023-09-07T06:56:47;3.15;;;2.45;;
49223;SDS011;35050;51.316;5.994;2023-09-07T06:59:13;2.67;;;2.42;;
49223;SDS011;35050;51.316;5.994;2023-09-07T07:01:39;2.50;;;2.30;;
49223;SDS011;35050;51.316;5.994;2023-09-07T07:04:04;2.28;;;2.08;;
49223;SDS011;35050;51.316;5.994;2023-09-07T07:06:31;2.50;;;2.13;;
49223;SDS011;35050;51.316;5.994;2023-09-07T07:08:57;1.98;;;1.77;;
49223;SDS011;35050;51.316;5.994;2023-09-07T07:11:22;2.58;;;2.08;;
49223;SDS011;35050;51.316;5.994;2023-09-07T07:13:48;2.67;;;2.20;;
49223;SDS011;35050;51.316;5.994;2023-09-07T07:16:16;4.13;;;2.10;;
49223;SDS011;35050;51.316;5.994;2023-09-07T07:18:42;3.03;;;2.53;;
49223;SDS011;35050;51.316;5.994;2023-09-07T07:21:07;3.83;;;2.10;;
49223;SDS011;35050;51.316;5.994;2023-09-07T07:23:34;2.67;;;2.30;;
49223;SDS011;35050;51.316;5.994;2023-09-07T07:26:00;2.40;;;2.15;;
49223;SDS011;35050;51.316;5.994;2023-09-07T07:28:25;3.20;;;2.42;;
49223;SDS011;35050;51.316;5.994;2023-09-07T07:30:51;2.63;;;2.28;;
49223;SDS011;35050;51.316;5.994;2023-09-07T07:33:18;2.95;;;2.65;;
49223;SDS011;35050;51.316;5.994;2023-09-07T07:35:44;3.75;;;2.40;;
49223;SDS011;35050;51.316;5.994;2023-09-07T07:38:11;2.50;;;2.20;;
49223;SDS011;35050;51.316;5.994;2023-09-07T07:40:38;3.05;;;2.10;;
49223;SDS011;35050;51.316;5.994;2023-09-07T07:43:04;2.35;;;2.15;;
49223;SDS011;35050;51.316;5.994;2023-09-07T07:45:31;4.78;;;2.50;;
49223;SDS011;35050;51.316;5.994;2023-09-07T07:48:01;2.70;;;2.45;;
49223;SDS011;35050;51.316;5.994;2023-09-07T07:50:27;2.42;;;1.90;;
49223;SDS011;35050;51.316;5.994;2023-09-07T07:52:53;2.78;;;2.45;;
49223;SDS011;35050;51.316;5.994;2023-09-07T07:55:18;3.42;;;2.42;;
49223;SDS011;35050;51.316;5.994;2023-09-07T07:57:44;2.60;;;2.30;;
49223;SDS011;35050;51.316;5.994;2023-09-07T08:00:10;2.40;;;2.20;;
49223;SDS011;35050;51.316;5.994;2023-09-07T08:02:36;2.72;;;2.42;;
49223;SDS011;35050;51.316;5.994;2023-09-07T08:05:02;2.22;;;2.03;;
49223;SDS011;35050;51.316;5.994;2023-09-07T08:07:29;2.65;;;2.08;;
49223;SDS011;35050;51.316;5.994;2023-09-07T08:09:55;3.78;;;2.40;;
49223;SDS011;35050;51.316;5.994;2023-09-07T08:12:20;2.50;;;2.30;;
49223;SDS011;35050;51.316;5.994;2023-09-07T08:14:46;3.35;;;2.00;;
49223;SDS011;35050;51.316;5.994;2023-09-07T08:17:12;3.95;;;2.03;;
49223;SDS011;35050;51.316;5.994;2023-09-07T08:19:37;2.47;;;2.20;;
49223;SDS011;35050;51.316;5.994;2023-09-07T08:22:04;4.40;;;2.40;;
49223;SDS011;35050;51.316;5.994;2023-09-07T08:24:30;2.83;;;2.20;;
49223;SDS011;35050;51.316;5.994;2023-09-07T08:26:56;2.17;;;1.98;;
49223;SDS011;35050;51.316;5.994;2023-09-07T08:29:23;2.42;;;2.20;;
49223;SDS011;35050;51.316;5.994;2023-09-07T08:31:53;2.85;;;2.17;;
49223;SDS011;35050;51.316;5.994;2023-09-07T08:34:19;2.50;;;2.22;;
49223;SDS011;35050;51.316;5.994;2023-09-07T08:36:47;3.03;;;2.45;;
49223;SDS011;35050;51.316;5.994;2023-09-07T08:39:14;5.45;;;2.40;;
49223;SDS011;35050;51.316;5.994;2023-09-07T08:41:40;3.30;;;2.63;;
49223;SDS011;35050;51.316;5.994;2023-09-07T08:44:12;4.60;;;2.45;;
49223;SDS011;35050;51.316;5.994;2023-09-07T08:49:07;3.88;;;2.47;;
49223;SDS011;35050;51.316;5.994;2023-09-07T08:51:34;2.35;;;2.13;;
49223;SDS011;35050;51.316;5.994;2023-09-07T08:54:02;3.88;;;2.70;;
49223;SDS011;35050;51.316;5.994;2023-09-07T08:56:28;3.58;;;2.33;;
49223;SDS011;35050;51.316;5.994;2023-09-07T08:58:54;3.00;;;2.30;;
49223;SDS011;35050;51.316;5.994;2023-09-07T09:01:19;3.63;;;2.80;;
49223;SDS011;35050;51.316;5.994;2023-09-07T09:03:51;3.78;;;2.60;;
49223;SDS011;35050;51.316;5.994;2023-09-07T09:06:17;3.08;;;2.25;;
49223;SDS011;35050;51.316;5.994;2023-09-07T09:08:48;2.22;;;2.03;;
49223;SDS011;35050;51.316;5.994;2023-09-07T09:11:15;3.42;;;2.40;;
49223;SDS011;35050;51.316;5.994;2023-09-07T09:13:42;2.83;;;2.35;;
49223;SDS011;35050;51.316;5.994;2023-09-07T09:16:09;3.88;;;2.13;;
49223;SDS011;35050;51.316;5.994;2023-09-07T09:18:35;3.10;;;2.55;;
49223;SDS011;35050;51.316;5.994;2023-09-07T09:21:01;3.08;;;2.67;;
49223;SDS011;35050;51.316;5.994;2023-09-07T09:23:33;2.92;;;2.28;;
49223;SDS011;35050;51.316;5.994;2023-09-07T09:26:05;3.15;;;2.30;;
49223;SDS011;35050;51.316;5.994;2023-09-07T09:28:31;3.17;;;2.30;;
49223;SDS011;35050;51.316;5.994;2023-09-07T09:30:58;2.63;;;2.30;;
49223;SDS011;35050;51.316;5.994;2023-09-07T09:33:25;2.83;;;2.20;;
49223;SDS011;35050;51.316;5.994;2023-09-07T09:35:52;2.50;;;2.13;;
49223;SDS011;35050;51.316;5.994;2023-09-07T09:38:19;3.05;;;2.50;;
49223;SDS011;35050;51.316;5.994;2023-09-07T09:40:45;3.08;;;2.17;;
49223;SDS011;35050;51.316;5.994;2023-09-07T09:43:11;3.45;;;2.20;;
49223;SDS011;35050;51.316;5.994;2023-09-07T09:45:38;3.92;;;2.20;;
49223;SDS011;35050;51.316;5.994;2023-09-07T09:48:04;2.83;;;2.20;;
49223;SDS011;35050;51.316;5.994;2023-09-07T09:50:31;3.25;;;2.00;;
49223;SDS011;35050;51.316;5.994;2023-09-07T09:52:59;2.75;;;1.90;;
49223;SDS011;35050;51.316;5.994;2023-09-07T09:55:26;2.63;;;2.20;;
49223;SDS011;35050;51.316;5.994;2023-09-07T09:57:53;3.75;;;2.47;;
49223;SDS011;35050;51.316;5.994;2023-09-07T10:00:22;3.03;;;2.20;;
49223;SDS011;35050;51.316;5.994;2023-09-07T10:03:13;2.70;;;2.20;;
49223;SDS011;35050;51.316;5.994;2023-09-07T10:05:40;2.90;;;2.60;;
49223;SDS011;35050;51.316;5.994;2023-09-07T10:08:09;2.63;;;2.15;;
49223;SDS011;35050;51.316;5.994;2023-09-07T10:10:38;2.85;;;2.17;;
49223;SDS011;35050;51.316;5.994;2023-09-07T10:13:06;4.18;;;2.47;;
49223;SDS011;35050;51.316;5.994;2023-09-07T10:15:31;6.03;;;2.40;;
49223;SDS011;35050;51.316;5.994;2023-09-07T10:23:16;2.28;;;2.08;;
49223;SDS011;35050;51.316;5.994;2023-09-07T10:25:42;2.63;;;2.03;;
49223;SDS011;35050;51.316;5.994;2023-09-07T10:28:25;4.20;;;2.33;;
49223;SDS011;35050;51.316;5.994;2023-09-07T10:30:57;3.72;;;2.10;;
49223;SDS011;35050;51.316;5.994;2023-09-07T10:33:24;2.50;;;2.30;;
49223;SDS011;35050;51.316;5.994;2023-09-07T10:35:49;2.67;;;2.03;;
49223;SDS011;35050;51.316;5.994;2023-09-07T10:38:15;2.80;;;2.40;;
49223;SDS011;35050;51.316;5.994;2023-09-07T10:40:44;3.22;;;2.10;;
49223;SDS011;35050;51.316;5.994;2023-09-07T10:45:39;4.53;;;2.33;;
49223;SDS011;35050;51.316;5.994;2023-09-07T10:48:08;3.58;;;2.50;;
49223;SDS011;35050;51.316;5.994;2023-09-07T10:50:46;2.42;;;2.22;;
49223;SDS011;35050;51.316;5.994;2023-09-07T10:53:13;2.35;;;2.15;;
49223;SDS011;35050;51.316;5.994;2023-09-07T10:55:40;2.30;;;2.10;;
49223;SDS011;35050;51.316;5.994;2023-09-07T10:58:08;3.38;;;2.30;;
49223;SDS011;35050;51.316;5.994;2023-09-07T11:00:35;2.85;;;2.45;;
49223;SDS011;35050;51.316;5.994;2023-09-07T11:03:08;2.63;;;2.20;;
49223;SDS011;35050;51.316;5.994;2023-09-07T11:05:35;2.63;;;2.38;;
49223;SDS011;35050;51.316;5.994;2023-09-07T11:08:03;4.32;;;2.10;;
49223;SDS011;35050;51.316;5.994;2023-09-07T11:10:32;3.47;;;2.10;;
49223;SDS011;35050;51.316;5.994;2023-09-07T11:13:01;3.08;;;2.13;;
49223;SDS011;35050;51.316;5.994;2023-09-07T11:15:29;2.53;;;2.10;;
49223;SDS011;35050;51.316;5.994;2023-09-07T11:17:55;2.40;;;2.03;;
49223;SDS011;35050;51.316;5.994;2023-09-07T11:20:22;2.33;;;2.13;;
49223;SDS011;35050;51.316;5.994;2023-09-07T11:22:49;3.13;;;2.30;;
49223;SDS011;35050;51.316;5.994;2023-09-07T11:25:15;3.30;;;2.28;;
49223;SDS011;35050;51.316;5.994;2023-09-07T11:27:41;3.10;;;2.13;;
49223;SDS011;35050;51.316;5.994;2023-09-07T11:30:07;2.17;;;1.95;;
49223;SDS011;35050;51.316;5.994;2023-09-07T11:32:35;2.17;;;2.03;;
49223;SDS011;35050;51.316;5.994;2023-09-07T11:35:02;3.80;;;2.17;;
49223;SDS011;35050;51.316;5.994;2023-09-07T11:37:32;3.22;;;1.90;;
49223;SDS011;35050;51.316;5.994;2023-09-07T11:39:58;4.38;;;2.00;;
49223;SDS011;35050;51.316;5.994;2023-09-07T11:42:24;2.65;;;2.05;;
49223;SDS011;35050;51.316;5.994;2023-09-07T11:44:49;3.03;;;2.10;;
49223;SDS011;35050;51.316;5.994;2023-09-07T11:47:15;2.00;;;1.90;;
49223;SDS011;35050;51.316;5.994;2023-09-07T11:49:41;2.45;;;1.98;;
49223;SDS011;35050;51.316;5.994;2023-09-07T11:52:07;2.28;;;2.08;;
49223;SDS011;35050;51.316;5.994;2023-09-07T11:54:32;4.97;;;2.15;;
49223;SDS011;35050;51.316;5.994;2023-09-07T11:56:58;2.97;;;2.13;;
49223;SDS011;35050;51.316;5.994;2023-09-07T11:59:24;2.40;;;1.88;;
49223;SDS011;35050;51.316;5.994;2023-09-07T12:01:49;2.67;;;2.00;;
49223;SDS011;35050;51.316;5.994;2023-09-07T12:04:15;2.30;;;2.05;;
49223;SDS011;35050;51.316;5.994;2023-09-07T12:06:41;2.20;;;2.00;;
49223;SDS011;35050;51.316;5.994;2023-09-07T12:09:07;3.10;;;2.20;;
49223;SDS011;35050;51.316;5.994;2023-09-07T12:11:34;2.72;;;1.98;;
49223;SDS011;35050;51.316;5.994;2023-09-07T12:14:01;2.80;;;1.90;;
49223;SDS011;35050;51.316;5.994;2023-09-07T12:16:27;1.95;;;1.75;;
49223;SDS011;35050;51.316;5.994;2023-09-07T12:18:53;1.90;;;1.77;;
49223;SDS011;35050;51.316;5.994;2023-09-07T12:21:19;2.40;;;1.83;;
49223;SDS011;35050;51.316;5.994;2023-09-07T12:23:45;2.10;;;1.90;;
49223;SDS011;35050;51.316;5.994;2023-09-07T12:26:11;2.08;;;1.90;;
49223;SDS011;35050;51.316;5.994;2023-09-07T12:28:39;2.17;;;1.98;;
49223;SDS011;35050;51.316;5.994;2023-09-07T12:31:05;3.05;;;1.90;;
49223;SDS011;35050;51.316;5.994;2023-09-07T12:33:31;3.03;;;1.80;;
49223;SDS011;35050;51.316;5.994;2023-09-07T12:35:57;2.17;;;1.75;;
49223;SDS011;35050;51.316;5.994;2023-09-07T12:38:23;2.28;;;1.92;;
49223;SDS011;35050;51.316;5.994;2023-09-07T12:40:53;2.60;;;2.10;;
49223;SDS011;35050;51.316;5.994;2023-09-07T12:43:19;3.08;;;1.88;;
49223;SDS011;35050;51.316;5.994;2023-09-07T12:45:48;2.42;;;1.88;;
49223;SDS011;35050;51.316;5.994;2023-09-07T12:48:13;2.08;;;1.90;;
49223;SDS011;35050;51.316;5.994;2023-09-07T12:50:39;2.05;;;1.80;;
49223;SDS011;35050;51.316;5.994;2023-09-07T12:53:05;2.15;;;1.90;;
49223;SDS011;35050;51.316;5.994;2023-09-07T12:55:31;1.70;;;1.60;;
49223;SDS011;35050;51.316;5.994;2023-09-07T12:57:57;1.90;;;1.73;;
49223;SDS011;35050;51.316;5.994;2023-09-07T13:00:24;1.85;;;1.75;;
49223;SDS011;35050;51.316;5.994;2023-09-07T13:02:49;2.10;;;1.80;;
49223;SDS011;35050;51.316;5.994;2023-09-07T13:05:15;2.85;;;1.85;;
49223;SDS011;35050;51.316;5.994;2023-09-07T13:07:41;1.95;;;1.58;;
49223;SDS011;35050;51.316;5.994;2023-09-07T13:10:09;1.77;;;1.60;;
49223;SDS011;35050;51.316;5.994;2023-09-07T13:12:36;3.10;;;1.77;;
49223;SDS011;35050;51.316;5.994;2023-09-07T13:15:02;4.53;;;2.08;;
49223;SDS011;35050;51.316;5.994;2023-09-07T13:17:29;1.80;;;1.70;;
49223;SDS011;35050;51.316;5.994;2023-09-07T13:19:55;1.98;;;1.60;;
49223;SDS011;35050;51.316;5.994;2023-09-07T13:22:20;1.80;;;1.70;;
49223;SDS011;35050;51.316;5.994;2023-09-07T13:24:46;2.10;;;1.90;;
49223;SDS011;35050;51.316;5.994;2023-09-07T13:27:12;2.47;;;1.40;;
49223;SDS011;35050;51.316;5.994;2023-09-07T13:29:37;2.15;;;1.95;;
49223;SDS011;35050;51.316;5.994;2023-09-07T13:32:03;1.95;;;1.77;;
49223;SDS011;35050;51.316;5.994;2023-09-07T13:34:29;2.00;;;1.88;;
49223;SDS011;35050;51.316;5.994;2023-09-07T13:36:55;1.95;;;1.60;;
49223;SDS011;35050;51.316;5.994;2023-09-07T13:39:21;2.00;;;1.50;;
49223;SDS011;35050;51.316;5.994;2023-09-07T13:41:47;2.10;;;1.90;;
49223;SDS011;35050;51.316;5.994;2023-09-07T13:44:13;1.80;;;1.70;;
49223;SDS011;35050;51.316;5.994;2023-09-07T13:46:39;1.98;;;1.77;;
49223;SDS011;35050;51.316;5.994;2023-09-07T13:49:05;2.55;;;1.83;;
49223;SDS011;35050;51.316;5.994;2023-09-07T13:51:30;1.73;;;1.63;;
49223;SDS011;35050;51.316;5.994;2023-09-07T13:54:02;2.33;;;1.83;;
49223;SDS011;35050;51.316;5.994;2023-09-07T13:56:29;3.20;;;1.83;;
49223;SDS011;35050;51.316;5.994;2023-09-07T13:58:54;2.13;;;1.75;;
49223;SDS011;35050;51.316;5.994;2023-09-07T14:01:20;1.80;;;1.70;;
49223;SDS011;35050;51.316;5.994;2023-09-07T14:03:46;1.80;;;1.70;;
49223;SDS011;35050;51.316;5.994;2023-09-07T14:06:12;1.80;;;1.70;;
49223;SDS011;35050;51.316;5.994;2023-09-07T14:08:37;2.03;;;1.65;;
49223;SDS011;35050;51.316;5.994;2023-09-07T14:11:03;3.08;;;1.80;;
49223;SDS011;35050;51.316;5.994;2023-09-07T14:13:28;3.47;;;1.98;;
49223;SDS011;35050;51.316;5.994;2023-09-07T14:15:54;2.35;;;1.50;;
49223;SDS011;35050;51.316;5.994;2023-09-07T14:18:20;2.20;;;2.00;;
49223;SDS011;35050;51.316;5.994;2023-09-07T14:20:45;2.10;;;1.67;;
49223;SDS011;35050;51.316;5.994;2023-09-07T14:23:11;1.65;;;1.55;;
49223;SDS011;35050;51.316;5.994;2023-09-07T14:25:38;1.80;;;1.70;;
49223;SDS011;35050;51.316;5.994;2023-09-07T14:28:06;2.08;;;1.60;;
49223;SDS011;35050;51.316;5.994;2023-09-07T14:30:33;1.80;;;1.50;;
49223;SDS011;35050;51.316;5.994;2023-09-07T14:32:58;1.80;;;1.70;;
49223;SDS011;35050;51.316;5.994;2023-09-07T14:35:24;3.28;;;2.20;;
49223;SDS011;35050;51.316;5.994;2023-09-07T14:37:49;2.10;;;1.90;;
49223;SDS011;35050;51.316;5.994;2023-09-07T14:40:17;1.90;;;1.80;;
49223;SDS011;35050;51.316;5.994;2023-09-07T14:42:43;1.67;;;1.52;;
49223;SDS011;35050;51.316;5.994;2023-09-07T14:45:09;6.47;;;1.88;;
49223;SDS011;35050;51.316;5.994;2023-09-07T14:47:35;2.47;;;2.00;;
49223;SDS011;35050;51.316;5.994;2023-09-07T14:50:01;2.30;;;1.70;;
49223;SDS011;35050;51.316;5.994;2023-09-07T14:52:28;1.83;;;1.70;;
49223;SDS011;35050;51.316;5.994;2023-09-07T14:54:53;1.85;;;1.60;;
49223;SDS011;35050;51.316;5.994;2023-09-07T14:57:19;3.33;;;1.50;;